sensor_id;sensor_type;location;lat;lon;timestamp;temperature;humidity
22469;DHT22;11401;50.792;4.352;2023-04-03T00:00:36;12.40;63.80
22469;DHT22;11401;50.792;4.352;2023-04-03T00:03:03;12.30;63.30
22469;DHT22;11401;50.792;4.352;2023-04-03T00:05:31;12.30;64.10
22469;DHT22;11401;50.792;4.352;2023-04-03T00:07:58;12.30;64.20
22469;DHT22;11401;50.792;4.352;2023-04-03T00:10:25;12.30;64.00
22469;DHT22;11401;50.792;4.352;2023-04-03T00:12:52;12.30;64.20
22469;DHT22;11401;50.792;4.352;2023-04-03T00:15:19;12.20;64.10
22469;DHT22;11401;50.792;4.352;2023-04-03T00:17:47;12.20;64.20
22469;DHT22;11401;50.792;4.352;2023-04-03T00:20:14;12.20;64.50
22469;DHT22;11401;50.792;4.352;2023-04-03T00:22:42;12.20;64.40
22469;DHT22;11401;50.792;4.352;2023-04-03T00:25:09;12.20;64.40
22469;DHT22;11401;50.792;4.352;2023-04-03T00:27:37;12.20;65.10
22469;DHT22;11401;50.792;4.352;2023-04-03T00:30:06;12.20;64.10
22469;DHT22;11401;50.792;4.352;2023-04-03T00:32:33;12.20;64.30
22469;DHT22;11401;50.792;4.352;2023-04-03T00:35:01;12.20;64.40
22469;DHT22;11401;50.792;4.352;2023-04-03T00:37:28;12.20;64.30
22469;DHT22;11401;50.792;4.352;2023-04-03T00:39:56;12.20;64.10
22469;DHT22;11401;50.792;4.352;2023-04-03T00:42:23;12.10;64.50
22469;DHT22;11401;50.792;4.352;2023-04-03T00:47:24;12.20;64.60
22469;DHT22;11401;50.792;4.352;2023-04-03T00:49:52;12.10;63.80
22469;DHT22;11401;50.792;4.352;2023-04-03T00:52:25;12.10;64.20
22469;DHT22;11401;50.792;4.352;2023-04-03T00:54:58;12.10;64.00
22469;DHT22;11401;50.792;4.352;2023-04-03T00:57:27;12.00;64.50
22469;DHT22;11401;50.792;4.352;2023-04-03T00:59:59;12.00;64.60
22469;DHT22;11401;50.792;4.352;2023-04-03T01:02:28;12.00;64.40
22469;DHT22;11401;50.792;4.352;2023-04-03T01:04:55;12.00;64.70
22469;DHT22;11401;50.792;4.352;2023-04-03T01:07:26;12.00;64.50
22469;DHT22;11401;50.792;4.352;2023-04-03T01:09:57;12.10;64.70
22469;DHT22;11401;50.792;4.352;2023-04-03T01:12:28;12.00;63.90
22469;DHT22;11401;50.792;4.352;2023-04-03T01:14:58;12.00;64.30
22469;DHT22;11401;50.792;4.352;2023-04-03T01:17:33;12.00;64.40
22469;DHT22;11401;50.792;4.352;2023-04-03T01:25:38;12.00;64.20
22469;DHT22;11401;50.792;4.352;2023-04-03T01:28:08;12.00;64.60
22469;DHT22;11401;50.792;4.352;2023-04-03T01:30:50;12.10;64.60
22469;DHT22;11401;50.792;4.352;2023-04-03T01:33:20;12.10;64.30
22469;DHT22;11401;50.792;4.352;2023-04-03T01:35:47;12.00;63.80
22469;DHT22;11401;50.792;4.352;2023-04-03T01:38:14;12.10;64.50
22469;DHT22;11401;50.792;4.352;2023-04-03T01:40:42;12.00;64.30
22469;DHT22;11401;50.792;4.352;2023-04-03T01:43:09;12.00;64.50
22469;DHT22;11401;50.792;4.352;2023-04-03T01:45:36;12.10;64.40
22469;DHT22;11401;50.792;4.352;2023-04-03T01:48:04;12.10;64.20
22469;DHT22;11401;50.792;4.352;2023-04-03T01:50:31;12.10;64.10
22469;DHT22;11401;50.792;4.352;2023-04-03T01:52:58;12.10;64.50
22469;DHT22;11401;50.792;4.352;2023-04-03T01:55:25;12.00;64.10
22469;DHT22;11401;50.792;4.352;2023-04-03T01:57:52;12.10;64.00
22469;DHT22;11401;50.792;4.352;2023-04-03T02:00:19;12.00;64.00
22469;DHT22;11401;50.792;4.352;2023-04-03T02:02:46;12.00;64.60
22469;DHT22;11401;50.792;4.352;2023-04-03T02:05:13;12.00;64.60
22469;DHT22;11401;50.792;4.352;2023-04-03T02:07:41;12.00;64.40
22469;DHT22;11401;50.792;4.352;2023-04-03T02:10:10;12.10;64.50
22469;DHT22;11401;50.792;4.352;2023-04-03T02:12:37;12.10;64.40
22469;DHT22;11401;50.792;4.352;2023-04-03T02:15:04;12.00;63.90
22469;DHT22;11401;50.792;4.352;2023-04-03T02:17:31;12.10;65.00
22469;DHT22;11401;50.792;4.352;2023-04-03T02:19:58;12.10;63.90
22469;DHT22;11401;50.792;4.352;2023-04-03T02:22:26;12.00;63.90
22469;DHT22;11401;50.792;4.352;2023-04-03T02:24:52;12.00;64.30
22469;DHT22;11401;50.792;4.352;2023-04-03T02:27:19;12.00;64.30
22469;DHT22;11401;50.792;4.352;2023-04-03T02:29:48;12.00;63.80
22469;DHT22;11401;50.792;4.352;2023-04-03T02:32:14;12.00;63.80
22469;DHT22;11401;50.792;4.352;2023-04-03T02:34:42;12.00;64.30
22469;DHT22;11401;50.792;4.352;2023-04-03T02:37:12;12.00;63.90
22469;DHT22;11401;50.792;4.352;2023-04-03T02:39:39;12.00;63.70
22469;DHT22;11401;50.792;4.352;2023-04-03T02:42:06;12.00;63.90
22469;DHT22;11401;50.792;4.352;2023-04-03T02:44:34;12.00;64.20
22469;DHT22;11401;50.792;4.352;2023-04-03T02:47:02;12.00;63.80
22469;DHT22;11401;50.792;4.352;2023-04-03T02:49:29;12.00;63.80
22469;DHT22;11401;50.792;4.352;2023-04-03T02:51:56;12.00;64.10
22469;DHT22;11401;50.792;4.352;2023-04-03T02:54:23;12.00;64.10
22469;DHT22;11401;50.792;4.352;2023-04-03T02:56:57;11.90;64.20
22469;DHT22;11401;50.792;4.352;2023-04-03T02:59:24;11.90;64.10
22469;DHT22;11401;50.792;4.352;2023-04-03T03:01:52;11.90;64.00
22469;DHT22;11401;50.792;4.352;2023-04-03T03:04:19;11.90;64.10
22469;DHT22;11401;50.792;4.352;2023-04-03T03:06:46;11.80;64.20
22469;DHT22;11401;50.792;4.352;2023-04-03T03:09:13;11.90;64.40
22469;DHT22;11401;50.792;4.352;2023-04-03T03:11:42;11.80;64.50
22469;DHT22;11401;50.792;4.352;2023-04-03T03:14:09;11.80;64.40
22469;DHT22;11401;50.792;4.352;2023-04-03T03:16:36;11.80;64.30
22469;DHT22;11401;50.792;4.352;2023-04-03T03:19:03;11.70;64.50
22469;DHT22;11401;50.792;4.352;2023-04-03T03:21:30;11.70;64.50
22469;DHT22;11401;50.792;4.352;2023-04-03T03:23:57;11.60;64.60
22469;DHT22;11401;50.792;4.352;2023-04-03T03:26:26;11.60;64.80
22469;DHT22;11401;50.792;4.352;2023-04-03T03:28:54;11.60;64.60
22469;DHT22;11401;50.792;4.352;2023-04-03T03:31:21;11.50;64.90
22469;DHT22;11401;50.792;4.352;2023-04-03T03:33:48;11.60;64.70
22469;DHT22;11401;50.792;4.352;2023-04-03T03:36:15;11.50;65.10
22469;DHT22;11401;50.792;4.352;2023-04-03T03:38:43;11.50;65.00
22469;DHT22;11401;50.792;4.352;2023-04-03T03:41:10;11.50;64.90
22469;DHT22;11401;50.792;4.352;2023-04-03T03:43:38;11.50;65.10
22469;DHT22;11401;50.792;4.352;2023-04-03T03:46:06;11.50;65.10
22469;DHT22;11401;50.792;4.352;2023-04-03T03:48:33;11.50;65.00
22469;DHT22;11401;50.792;4.352;2023-04-03T03:51:01;11.50;64.90
22469;DHT22;11401;50.792;4.352;2023-04-03T03:53:32;11.40;65.10
22469;DHT22;11401;50.792;4.352;2023-04-03T03:56:04;11.40;65.00
22469;DHT22;11401;50.792;4.352;2023-04-03T03:58:34;11.40;65.40
22469;DHT22;11401;50.792;4.352;2023-04-03T04:01:03;11.40;65.20
22469;DHT22;11401;50.792;4.352;2023-04-03T04:03:30;11.30;65.30
22469;DHT22;11401;50.792;4.352;2023-04-03T04:05:57;11.30;65.30
22469;DHT22;11401;50.792;4.352;2023-04-03T04:08:25;11.30;65.60
22469;DHT22;11401;50.792;4.352;2023-04-03T04:10:52;11.30;65.10
22469;DHT22;11401;50.792;4.352;2023-04-03T04:13:19;11.30;65.10
22469;DHT22;11401;50.792;4.352;2023-04-03T04:15:46;11.20;65.50
22469;DHT22;11401;50.792;4.352;2023-04-03T04:18:15;11.30;65.40
22469;DHT22;11401;50.792;4.352;2023-04-03T04:20:45;11.30;65.70
22469;DHT22;11401;50.792;4.352;2023-04-03T04:23:15;11.20;65.30
22469;DHT22;11401;50.792;4.352;2023-04-03T04:25:44;11.20;65.90
22469;DHT22;11401;50.792;4.352;2023-04-03T04:28:12;11.30;65.70
22469;DHT22;11401;50.792;4.352;2023-04-03T04:30:40;11.30;65.30
22469;DHT22;11401;50.792;4.352;2023-04-03T04:33:08;11.30;64.60
22469;DHT22;11401;50.792;4.352;2023-04-03T04:35:35;11.30;64.60
22469;DHT22;11401;50.792;4.352;2023-04-03T04:38:03;11.40;64.80
22469;DHT22;11401;50.792;4.352;2023-04-03T04:40:30;11.40;64.40
22469;DHT22;11401;50.792;4.352;2023-04-03T04:42:58;11.30;64.20
22469;DHT22;11401;50.792;4.352;2023-04-03T04:45:26;11.30;64.00
22469;DHT22;11401;50.792;4.352;2023-04-03T04:47:55;11.30;64.00
22469;DHT22;11401;50.792;4.352;2023-04-03T04:50:24;11.30;64.10
22469;DHT22;11401;50.792;4.352;2023-04-03T04:52:54;11.30;64.40
22469;DHT22;11401;50.792;4.352;2023-04-03T04:55:21;11.30;64.50
22469;DHT22;11401;50.792;4.352;2023-04-03T04:57:49;11.30;63.50
22469;DHT22;11401;50.792;4.352;2023-04-03T05:00:17;11.30;64.00
22469;DHT22;11401;50.792;4.352;2023-04-03T05:02:44;11.30;63.20
22469;DHT22;11401;50.792;4.352;2023-04-03T05:05:12;11.30;63.50
22469;DHT22;11401;50.792;4.352;2023-04-03T05:07:39;11.30;63.70
22469;DHT22;11401;50.792;4.352;2023-04-03T05:10:07;11.30;63.70
22469;DHT22;11401;50.792;4.352;2023-04-03T05:12:35;11.30;63.00
22469;DHT22;11401;50.792;4.352;2023-04-03T05:15:04;11.20;63.90
22469;DHT22;11401;50.792;4.352;2023-04-03T05:17:32;11.30;63.50
22469;DHT22;11401;50.792;4.352;2023-04-03T05:20:00;11.20;63.50
22469;DHT22;11401;50.792;4.352;2023-04-03T05:22:28;11.10;62.70
22469;DHT22;11401;50.792;4.352;2023-04-03T05:25:00;11.00;62.90
22469;DHT22;11401;50.792;4.352;2023-04-03T05:27:27;11.10;65.20
22469;DHT22;11401;50.792;4.352;2023-04-03T05:29:57;11.20;64.70
22469;DHT22;11401;50.792;4.352;2023-04-03T05:32:25;11.40;64.60
22469;DHT22;11401;50.792;4.352;2023-04-03T05:35:20;11.30;63.80
22469;DHT22;11401;50.792;4.352;2023-04-03T05:37:51;11.40;64.30
22469;DHT22;11401;50.792;4.352;2023-04-03T05:40:18;11.40;63.80
22469;DHT22;11401;50.792;4.352;2023-04-03T05:42:48;11.40;63.50
22469;DHT22;11401;50.792;4.352;2023-04-03T05:45:17;11.40;63.70
22469;DHT22;11401;50.792;4.352;2023-04-03T05:47:45;11.40;63.10
22469;DHT22;11401;50.792;4.352;2023-04-03T05:50:12;11.40;63.80
22469;DHT22;11401;50.792;4.352;2023-04-03T05:52:42;11.40;63.20
22469;DHT22;11401;50.792;4.352;2023-04-03T05:55:10;11.40;61.90
22469;DHT22;11401;50.792;4.352;2023-04-03T05:57:38;11.40;63.70
22469;DHT22;11401;50.792;4.352;2023-04-03T06:00:07;11.40;63.10
22469;DHT22;11401;50.792;4.352;2023-04-03T06:02:45;11.40;63.10
22469;DHT22;11401;50.792;4.352;2023-04-03T06:05:18;11.40;63.20
22469;DHT22;11401;50.792;4.352;2023-04-03T06:07:45;11.40;62.30
22469;DHT22;11401;50.792;4.352;2023-04-03T06:10:12;11.30;62.20
22469;DHT22;11401;50.792;4.352;2023-04-03T06:12:39;11.40;63.50
22469;DHT22;11401;50.792;4.352;2023-04-03T06:15:07;11.40;62.60
22469;DHT22;11401;50.792;4.352;2023-04-03T06:17:37;11.20;62.10
22469;DHT22;11401;50.792;4.352;2023-04-03T06:20:04;11.30;63.20
22469;DHT22;11401;50.792;4.352;2023-04-03T06:22:33;11.20;63.00
22469;DHT22;11401;50.792;4.352;2023-04-03T06:25:01;11.30;63.40
22469;DHT22;11401;50.792;4.352;2023-04-03T06:27:28;11.30;62.70
22469;DHT22;11401;50.792;4.352;2023-04-03T06:29:55;11.40;62.80
22469;DHT22;11401;50.792;4.352;2023-04-03T06:32:22;11.50;63.00
22469;DHT22;11401;50.792;4.352;2023-04-03T06:34:49;11.50;63.60
22469;DHT22;11401;50.792;4.352;2023-04-03T06:37:22;11.50;63.60
22469;DHT22;11401;50.792;4.352;2023-04-03T06:39:49;11.50;61.30
22469;DHT22;11401;50.792;4.352;2023-04-03T06:42:17;11.60;63.40
22469;DHT22;11401;50.792;4.352;2023-04-03T06:45:07;11.70;62.70
22469;DHT22;11401;50.792;4.352;2023-04-03T06:47:34;11.80;63.00
22469;DHT22;11401;50.792;4.352;2023-04-03T06:50:01;11.80;62.40
22469;DHT22;11401;50.792;4.352;2023-04-03T06:52:28;11.90;62.20
22469;DHT22;11401;50.792;4.352;2023-04-03T06:54:55;11.90;62.60
22469;DHT22;11401;50.792;4.352;2023-04-03T06:57:26;11.90;62.20
22469;DHT22;11401;50.792;4.352;2023-04-03T06:59:53;12.00;61.70
22469;DHT22;11401;50.792;4.352;2023-04-03T07:02:20;12.00;61.90
22469;DHT22;11401;50.792;4.352;2023-04-03T07:04:47;12.10;62.10
22469;DHT22;11401;50.792;4.352;2023-04-03T07:07:14;12.10;60.90
22469;DHT22;11401;50.792;4.352;2023-04-03T07:09:42;12.10;61.30
22469;DHT22;11401;50.792;4.352;2023-04-03T07:12:11;12.10;61.20
22469;DHT22;11401;50.792;4.352;2023-04-03T07:14:38;12.20;61.20
22469;DHT22;11401;50.792;4.352;2023-04-03T07:17:05;12.20;60.90
22469;DHT22;11401;50.792;4.352;2023-04-03T07:19:32;12.20;60.40
22469;DHT22;11401;50.792;4.352;2023-04-03T07:21:59;12.20;60.60
22469;DHT22;11401;50.792;4.352;2023-04-03T07:24:26;12.30;61.30
22469;DHT22;11401;50.792;4.352;2023-04-03T07:26:53;12.30;60.50
22469;DHT22;11401;50.792;4.352;2023-04-03T07:29:20;12.40;60.90
22469;DHT22;11401;50.792;4.352;2023-04-03T07:31:48;12.40;60.50
22469;DHT22;11401;50.792;4.352;2023-04-03T07:34:16;12.40;61.00
22469;DHT22;11401;50.792;4.352;2023-04-03T07:36:43;12.40;60.00
22469;DHT22;11401;50.792;4.352;2023-04-03T07:39:10;12.50;60.20
22469;DHT22;11401;50.792;4.352;2023-04-03T07:41:37;12.50;59.40
22469;DHT22;11401;50.792;4.352;2023-04-03T07:44:05;12.50;60.00
22469;DHT22;11401;50.792;4.352;2023-04-03T07:46:32;12.40;59.60
22469;DHT22;11401;50.792;4.352;2023-04-03T07:48:59;12.50;59.20
22469;DHT22;11401;50.792;4.352;2023-04-03T07:51:26;12.50;60.00
22469;DHT22;11401;50.792;4.352;2023-04-03T07:53:54;12.60;60.50
22469;DHT22;11401;50.792;4.352;2023-04-03T07:56:22;12.60;61.10
22469;DHT22;11401;50.792;4.352;2023-04-03T07:58:49;12.60;59.40
22469;DHT22;11401;50.792;4.352;2023-04-03T08:01:16;12.60;59.40
22469;DHT22;11401;50.792;4.352;2023-04-03T08:03:43;12.70;59.90
22469;DHT22;11401;50.792;4.352;2023-04-03T08:06:11;12.70;59.30
22469;DHT22;11401;50.792;4.352;2023-04-03T08:08:42;12.70;59.30
22469;DHT22;11401;50.792;4.352;2023-04-03T08:11:10;12.70;58.50
22469;DHT22;11401;50.792;4.352;2023-04-03T08:13:38;12.80;59.40
22469;DHT22;11401;50.792;4.352;2023-04-03T08:16:15;12.80;58.50
22469;DHT22;11401;50.792;4.352;2023-04-03T08:18:43;12.90;56.50
22469;DHT22;11401;50.792;4.352;2023-04-03T08:21:11;12.90;55.70
22469;DHT22;11401;50.792;4.352;2023-04-03T08:23:40;13.00;57.90
22469;DHT22;11401;50.792;4.352;2023-04-03T08:26:10;13.00;57.00
22469;DHT22;11401;50.792;4.352;2023-04-03T08:28:38;13.10;57.70
22469;DHT22;11401;50.792;4.352;2023-04-03T08:31:08;13.20;57.50
22469;DHT22;11401;50.792;4.352;2023-04-03T08:33:38;13.30;56.70
22469;DHT22;11401;50.792;4.352;2023-04-03T08:36:07;13.40;56.00
22469;DHT22;11401;50.792;4.352;2023-04-03T08:38:42;13.40;55.00
22469;DHT22;11401;50.792;4.352;2023-04-03T08:46:23;13.70;54.90
22469;DHT22;11401;50.792;4.352;2023-04-03T08:48:53;13.80;55.50
22469;DHT22;11401;50.792;4.352;2023-04-03T08:51:22;13.70;53.00
22469;DHT22;11401;50.792;4.352;2023-04-03T08:53:57;13.90;55.10
22469;DHT22;11401;50.792;4.352;2023-04-03T08:56:25;14.00;55.50
22469;DHT22;11401;50.792;4.352;2023-04-03T08:58:59;14.00;53.00
22469;DHT22;11401;50.792;4.352;2023-04-03T09:01:39;13.90;51.00
22469;DHT22;11401;50.792;4.352;2023-04-03T09:04:13;13.90;53.50
22469;DHT22;11401;50.792;4.352;2023-04-03T09:06:43;13.90;53.30
22469;DHT22;11401;50.792;4.352;2023-04-03T09:09:14;14.00;54.60
22469;DHT22;11401;50.792;4.352;2023-04-03T09:14:39;14.00;51.30
22469;DHT22;11401;50.792;4.352;2023-04-03T09:22:26;14.10;52.00
22469;DHT22;11401;50.792;4.352;2023-04-03T09:25:05;13.90;50.60
22469;DHT22;11401;50.792;4.352;2023-04-03T09:27:35;14.00;53.60
22469;DHT22;11401;50.792;4.352;2023-04-03T09:30:03;14.10;52.80
22469;DHT22;11401;50.792;4.352;2023-04-03T09:32:32;14.20;51.30
22469;DHT22;11401;50.792;4.352;2023-04-03T09:38:21;14.10;49.50
22469;DHT22;11401;50.792;4.352;2023-04-03T09:40:50;14.10;51.60
22469;DHT22;11401;50.792;4.352;2023-04-03T09:43:31;14.00;50.00
22469;DHT22;11401;50.792;4.352;2023-04-03T09:46:30;14.00;51.40
22469;DHT22;11401;50.792;4.352;2023-04-03T09:49:00;14.10;50.00
22469;DHT22;11401;50.792;4.352;2023-04-03T09:51:35;14.10;50.00
22469;DHT22;11401;50.792;4.352;2023-04-03T09:57:04;14.20;53.20
22469;DHT22;11401;50.792;4.352;2023-04-03T09:59:33;14.30;49.30
22469;DHT22;11401;50.792;4.352;2023-04-03T10:04:45;14.40;51.40
22469;DHT22;11401;50.792;4.352;2023-04-03T10:09:59;14.30;49.60
22469;DHT22;11401;50.792;4.352;2023-04-03T10:12:28;14.40;51.60
22469;DHT22;11401;50.792;4.352;2023-04-03T10:14:57;14.50;52.30
22469;DHT22;11401;50.792;4.352;2023-04-03T10:17:42;14.50;48.70
22469;DHT22;11401;50.792;4.352;2023-04-03T10:23:31;14.50;50.10
22469;DHT22;11401;50.792;4.352;2023-04-03T10:33:59;14.30;48.10
22469;DHT22;11401;50.792;4.352;2023-04-03T10:42:18;14.50;49.30
22469;DHT22;11401;50.792;4.352;2023-04-03T10:58:38;14.40;48.30
22469;DHT22;11401;50.792;4.352;2023-04-03T11:01:09;14.50;50.60
22469;DHT22;11401;50.792;4.352;2023-04-03T11:03:45;14.40;47.40
22469;DHT22;11401;50.792;4.352;2023-04-03T11:06:15;14.10;47.40
22469;DHT22;11401;50.792;4.352;2023-04-03T11:08:56;14.30;49.90
22469;DHT22;11401;50.792;4.352;2023-04-03T11:11:26;14.40;48.40
22469;DHT22;11401;50.792;4.352;2023-04-03T11:27:45;14.20;45.00
22469;DHT22;11401;50.792;4.352;2023-04-03T11:30:19;14.10;45.50
22469;DHT22;11401;50.792;4.352;2023-04-03T11:35:47;14.00;45.90
22469;DHT22;11401;50.792;4.352;2023-04-03T11:38:21;14.20;48.30
22469;DHT22;11401;50.792;4.352;2023-04-03T11:40:50;14.20;47.50
22469;DHT22;11401;50.792;4.352;2023-04-03T11:43:29;14.10;43.30
22469;DHT22;11401;50.792;4.352;2023-04-03T11:46:05;13.90;42.80
22469;DHT22;11401;50.792;4.352;2023-04-03T11:53:47;13.60;48.70
22469;DHT22;11401;50.792;4.352;2023-04-03T12:01:54;14.10;47.70
22469;DHT22;11401;50.792;4.352;2023-04-03T12:04:24;14.10;46.20
22469;DHT22;11401;50.792;4.352;2023-04-03T12:07:18;14.10;47.90
22469;DHT22;11401;50.792;4.352;2023-04-03T12:12:38;14.20;46.80
22469;DHT22;11401;50.792;4.352;2023-04-03T12:17:45;14.30;47.10
22469;DHT22;11401;50.792;4.352;2023-04-03T12:23:58;14.30;50.40
22469;DHT22;11401;50.792;4.352;2023-04-03T12:40:19;14.20;45.10
22469;DHT22;11401;50.792;4.352;2023-04-03T12:43:01;14.30;47.80
22469;DHT22;11401;50.792;4.352;2023-04-03T12:48:15;14.30;47.40
22469;DHT22;11401;50.792;4.352;2023-04-03T12:50:46;14.30;43.30
22469;DHT22;11401;50.792;4.352;2023-04-03T12:53:21;14.20;46.60
22469;DHT22;11401;50.792;4.352;2023-04-03T12:55:56;14.30;45.90
22469;DHT22;11401;50.792;4.352;2023-04-03T12:58:26;14.40;45.50
22469;DHT22;11401;50.792;4.352;2023-04-03T13:01:02;14.40;41.90
22469;DHT22;11401;50.792;4.352;2023-04-03T13:03:30;14.50;43.70
22469;DHT22;11401;50.792;4.352;2023-04-03T13:06:00;14.40;39.90
22469;DHT22;11401;50.792;4.352;2023-04-03T13:08:28;14.40;43.20
22469;DHT22;11401;50.792;4.352;2023-04-03T13:11:09;14.40;43.10
22469;DHT22;11401;50.792;4.352;2023-04-03T13:13:37;14.30;43.30
22469;DHT22;11401;50.792;4.352;2023-04-03T13:16:11;14.30;46.30
22469;DHT22;11401;50.792;4.352;2023-04-03T13:18:38;14.30;45.00
22469;DHT22;11401;50.792;4.352;2023-04-03T13:21:15;14.10;37.60
22469;DHT22;11401;50.792;4.352;2023-04-03T13:23:47;14.00;45.10
22469;DHT22;11401;50.792;4.352;2023-04-03T13:26:20;14.20;45.40
22469;DHT22;11401;50.792;4.352;2023-04-03T13:28:48;14.20;43.00
22469;DHT22;11401;50.792;4.352;2023-04-03T13:31:23;14.20;41.70
22469;DHT22;11401;50.792;4.352;2023-04-03T13:34:04;14.30;40.10
22469;DHT22;11401;50.792;4.352;2023-04-03T13:36:40;14.50;45.60
22469;DHT22;11401;50.792;4.352;2023-04-03T13:41:44;14.60;40.20
22469;DHT22;11401;50.792;4.352;2023-04-03T13:46:55;14.30;40.50
22469;DHT22;11401;50.792;4.352;2023-04-03T13:49:35;14.20;43.30
22469;DHT22;11401;50.792;4.352;2023-04-03T13:52:25;14.30;42.30
22469;DHT22;11401;50.792;4.352;2023-04-03T13:57:54;14.40;41.40
22469;DHT22;11401;50.792;4.352;2023-04-03T14:03:00;14.40;43.10
22469;DHT22;11401;50.792;4.352;2023-04-03T14:05:27;14.40;40.60
22469;DHT22;11401;50.792;4.352;2023-04-03T14:07:54;14.50;44.20
22469;DHT22;11401;50.792;4.352;2023-04-03T14:10:22;14.60;45.30
22469;DHT22;11401;50.792;4.352;2023-04-03T14:12:49;14.50;36.90
22469;DHT22;11401;50.792;4.352;2023-04-03T14:15:24;14.10;37.40
22469;DHT22;11401;50.792;4.352;2023-04-03T14:17:53;14.20;38.70
22469;DHT22;11401;50.792;4.352;2023-04-03T14:20:25;13.90;37.10
22469;DHT22;11401;50.792;4.352;2023-04-03T14:22:53;13.50;36.70
22469;DHT22;11401;50.792;4.352;2023-04-03T14:25:21;13.20;36.80
22469;DHT22;11401;50.792;4.352;2023-04-03T14:27:51;13.20;38.40
22469;DHT22;11401;50.792;4.352;2023-04-03T14:30:29;13.20;37.80
22469;DHT22;11401;50.792;4.352;2023-04-03T14:32:57;13.30;40.30
22469;DHT22;11401;50.792;4.352;2023-04-03T14:35:25;13.40;38.60
22469;DHT22;11401;50.792;4.352;2023-04-03T14:37:53;13.50;41.70
22469;DHT22;11401;50.792;4.352;2023-04-03T14:40:25;13.70;40.80
22469;DHT22;11401;50.792;4.352;2023-04-03T14:42:53;14.00;41.70
22469;DHT22;11401;50.792;4.352;2023-04-03T14:45:23;14.10;39.20
22469;DHT22;11401;50.792;4.352;2023-04-03T14:47:52;14.00;39.40
22469;DHT22;11401;50.792;4.352;2023-04-03T14:50:25;14.20;38.60
22469;DHT22;11401;50.792;4.352;2023-04-03T14:52:55;14.10;38.00
22469;DHT22;11401;50.792;4.352;2023-04-03T14:55:23;14.20;37.20
22469;DHT22;11401;50.792;4.352;2023-04-03T14:57:51;14.30;38.00
22469;DHT22;11401;50.792;4.352;2023-04-03T15:00:20;14.30;38.50
22469;DHT22;11401;50.792;4.352;2023-04-03T15:02:48;14.30;38.50
22469;DHT22;11401;50.792;4.352;2023-04-03T15:05:15;13.90;34.20
22469;DHT22;11401;50.792;4.352;2023-04-03T15:07:50;13.50;34.10
22469;DHT22;11401;50.792;4.352;2023-04-03T15:10:26;13.20;34.80
22469;DHT22;11401;50.792;4.352;2023-04-03T15:12:54;13.00;35.10
22469;DHT22;11401;50.792;4.352;2023-04-03T15:15:23;12.80;35.50
22469;DHT22;11401;50.792;4.352;2023-04-03T15:17:53;12.80;35.30
22469;DHT22;11401;50.792;4.352;2023-04-03T15:20:24;12.80;40.40
22469;DHT22;11401;50.792;4.352;2023-04-03T15:22:51;13.10;41.70
22469;DHT22;11401;50.792;4.352;2023-04-03T15:25:19;13.30;39.20
22469;DHT22;11401;50.792;4.352;2023-04-03T15:27:45;13.50;39.80
22469;DHT22;11401;50.792;4.352;2023-04-03T15:30:17;13.80;41.90
22469;DHT22;11401;50.792;4.352;2023-04-03T15:32:45;14.00;39.70
22469;DHT22;11401;50.792;4.352;2023-04-03T15:35:12;14.10;40.30
22469;DHT22;11401;50.792;4.352;2023-04-03T15:37:40;14.30;39.90
22469;DHT22;11401;50.792;4.352;2023-04-03T15:40:08;14.50;42.30
22469;DHT22;11401;50.792;4.352;2023-04-03T15:42:36;14.40;37.40
22469;DHT22;11401;50.792;4.352;2023-04-03T15:45:04;14.40;39.40
22469;DHT22;11401;50.792;4.352;2023-04-03T15:47:31;14.50;42.30
22469;DHT22;11401;50.792;4.352;2023-04-03T15:49:58;14.60;41.80
22469;DHT22;11401;50.792;4.352;2023-04-03T15:52:28;14.70;38.00
22469;DHT22;11401;50.792;4.352;2023-04-03T15:54:55;14.40;36.80
22469;DHT22;11401;50.792;4.352;2023-04-03T15:57:22;14.40;42.00
22469;DHT22;11401;50.792;4.352;2023-04-03T15:59:53;14.50;39.40
22469;DHT22;11401;50.792;4.352;2023-04-03T16:02:20;14.40;40.70
22469;DHT22;11401;50.792;4.352;2023-04-03T16:04:48;14.30;41.30
22469;DHT22;11401;50.792;4.352;2023-04-03T16:07:16;14.40;42.20
22469;DHT22;11401;50.792;4.352;2023-04-03T16:09:43;14.50;40.50
22469;DHT22;11401;50.792;4.352;2023-04-03T16:12:10;14.70;45.90
22469;DHT22;11401;50.792;4.352;2023-04-03T16:14:37;15.00;43.90
22469;DHT22;11401;50.792;4.352;2023-04-03T16:17:04;14.80;39.30
22469;DHT22;11401;50.792;4.352;2023-04-03T16:19:31;14.80;39.80
22469;DHT22;11401;50.792;4.352;2023-04-03T16:21:58;14.70;44.30
22469;DHT22;11401;50.792;4.352;2023-04-03T16:24:25;14.80;42.10
22469;DHT22;11401;50.792;4.352;2023-04-03T16:26:52;14.80;42.40
22469;DHT22;11401;50.792;4.352;2023-04-03T16:29:20;15.00;43.60
22469;DHT22;11401;50.792;4.352;2023-04-03T16:31:47;14.90;40.60
22469;DHT22;11401;50.792;4.352;2023-04-03T16:34:14;14.90;41.00
22469;DHT22;11401;50.792;4.352;2023-04-03T16:36:42;14.90;39.60
22469;DHT22;11401;50.792;4.352;2023-04-03T16:39:09;14.70;43.20
22469;DHT22;11401;50.792;4.352;2023-04-03T16:41:37;14.80;44.40
22469;DHT22;11401;50.792;4.352;2023-04-03T16:44:04;15.00;45.30
22469;DHT22;11401;50.792;4.352;2023-04-03T16:46:33;15.00;42.20
22469;DHT22;11401;50.792;4.352;2023-04-03T16:49:01;15.10;40.90
22469;DHT22;11401;50.792;4.352;2023-04-03T16:51:28;14.90;44.60
22469;DHT22;11401;50.792;4.352;2023-04-03T16:53:55;15.00;44.40
22469;DHT22;11401;50.792;4.352;2023-04-03T16:56:22;15.10;44.30
22469;DHT22;11401;50.792;4.352;2023-04-03T16:58:50;15.10;43.40
22469;DHT22;11401;50.792;4.352;2023-04-03T17:01:18;15.00;42.80
22469;DHT22;11401;50.792;4.352;2023-04-03T17:03:45;14.90;42.00
22469;DHT22;11401;50.792;4.352;2023-04-03T17:06:17;14.90;44.70
22469;DHT22;11401;50.792;4.352;2023-04-03T17:08:48;15.00;45.30
22469;DHT22;11401;50.792;4.352;2023-04-03T17:11:26;15.00;41.60
22469;DHT22;11401;50.792;4.352;2023-04-03T17:13:54;15.00;39.90
22469;DHT22;11401;50.792;4.352;2023-04-03T17:16:21;14.80;41.10
22469;DHT22;11401;50.792;4.352;2023-04-03T17:18:49;14.80;45.60
22469;DHT22;11401;50.792;4.352;2023-04-03T17:21:16;14.80;41.00
22469;DHT22;11401;50.792;4.352;2023-04-03T17:23:47;14.80;41.70
22469;DHT22;11401;50.792;4.352;2023-04-03T17:26:15;14.90;44.90
22469;DHT22;11401;50.792;4.352;2023-04-03T17:28:42;15.00;43.80
22469;DHT22;11401;50.792;4.352;2023-04-03T17:31:12;14.90;44.60
22469;DHT22;11401;50.792;4.352;2023-04-03T17:33:39;14.90;41.60
22469;DHT22;11401;50.792;4.352;2023-04-03T17:36:06;14.90;42.70
22469;DHT22;11401;50.792;4.352;2023-04-03T17:38:34;15.00;44.00
22469;DHT22;11401;50.792;4.352;2023-04-03T17:41:05;15.00;43.90
22469;DHT22;11401;50.792;4.352;2023-04-03T17:43:33;14.90;43.20
22469;DHT22;11401;50.792;4.352;2023-04-03T17:46:08;15.00;46.00
22469;DHT22;11401;50.792;4.352;2023-04-03T17:48:37;15.10;42.00
22469;DHT22;11401;50.792;4.352;2023-04-03T17:51:10;15.20;43.70